createdAt,value
2023-04-18T00:05:08.488Z,98984.11
2023-04-18T00:10:11.824Z,98982.98
2023-04-18T00:15:17.945Z,98978.50
2023-04-18T00:21:19.923Z,98981.90
2023-04-18T00:26:46.941Z,98982.60
2023-04-18T00:32:00.563Z,98985.38
2023-04-18T00:37:06.479Z,98984.41
2023-04-18T00:42:24.845Z,98982.21
2023-04-18T00:47:35.902Z,98982.77
2023-04-18T00:52:56.224Z,98979.77
2023-04-18T00:58:12.542Z,98974.08
2023-04-18T01:03:14.963Z,98971.46
2023-04-18T01:08:28.498Z,98967.73
2023-04-18T01:13:38.081Z,98970.98
2023-04-18T01:19:35.660Z,98969.77
2023-04-18T01:24:44.702Z,98970.98
2023-04-18T01:30:05.011Z,98967.54
2023-04-18T01:35:17.839Z,98964.77
2023-04-18T01:41:31.435Z,98963.21
2023-04-18T01:48:09.275Z,98959.30
2023-04-18T01:54:51.689Z,98954.34
2023-04-18T02:00:55.393Z,98953.84
2023-04-18T02:06:09.455Z,98947.54
2023-04-18T02:11:43.388Z,98951.24
2023-04-18T02:16:48.813Z,98951.82
2023-04-18T02:22:01.541Z,98948.06
2023-04-18T02:27:29.327Z,98944.55
2023-04-18T02:32:58.707Z,98942.71
2023-04-18T02:38:24.089Z,98943.75
2023-04-18T02:43:42.192Z,98948.20
2023-04-18T02:49:03.004Z,98944.55
2023-04-18T02:54:18.970Z,98954.60
2023-04-18T03:00:04.508Z,98954.31
2023-04-18T03:05:46.905Z,98958.98
2023-04-18T03:10:56.278Z,98961.77
2023-04-18T03:16:00.214Z,98961.74
2023-04-18T03:21:14.332Z,98961.48
2023-04-18T03:27:13.816Z,98962.77
2023-04-18T03:32:42.120Z,98967.69
2023-04-18T03:38:07.041Z,98969.24
2023-04-18T03:43:57.890Z,98968.29
2023-04-18T03:49:04.911Z,98966.36
2023-04-18T03:55:14.175Z,98965.30
2023-04-18T04:02:12.260Z,98974.48
2023-04-18T04:07:59.641Z,98984.34
2023-04-18T04:13:14.191Z,98990.30
2023-04-18T04:19:18.519Z,98995.05
2023-04-18T04:25:28.964Z,98992.73
2023-04-18T04:37:26.380Z,99010.56
2023-04-18T04:43:36.630Z,99016.98
2023-04-18T04:49:23.044Z,99020.63
2023-04-18T04:54:53.833Z,99027.38
2023-04-18T05:00:28.138Z,99033.06
2023-04-18T05:06:15.104Z,99036.92
2023-04-18T05:11:35.722Z,99040.72
2023-04-18T05:17:11.224Z,99043.73
2023-04-18T05:22:28.268Z,99046.36
2023-04-18T05:28:29.979Z,99045.98
2023-04-18T05:34:16.393Z,99053.88
2023-04-18T05:39:43.693Z,99061.04
2023-04-18T05:45:30.454Z,99060.95
2023-04-18T05:50:32.700Z,99073.16
2023-04-18T05:55:54.650Z,99076.43
2023-04-18T06:01:01.616Z,99073.95
2023-04-18T06:06:13.077Z,99075.52
2023-04-18T06:11:37.764Z,99076.85
2023-04-18T06:16:43.457Z,99084.07
2023-04-18T06:21:46.540Z,99089.30
2023-04-18T06:27:17.476Z,99091.56
2023-04-18T06:32:26.788Z,99095.60
2023-04-18T06:37:41.877Z,99101.00
2023-04-18T06:43:25.051Z,99106.92
2023-04-18T06:49:20.738Z,99106.53
2023-04-18T06:54:28.073Z,99112.48
2023-04-18T06:59:32.253Z,99113.41
2023-04-18T07:04:52.916Z,99108.92
2023-04-18T07:09:57.698Z,99114.20
2023-04-18T07:14:59.373Z,99125.56
2023-04-18T07:20:06.556Z,99127.67
2023-04-18T07:25:11.923Z,99128.93
2023-04-18T07:30:19.673Z,99123.59
2023-04-18T07:35:21.849Z,99131.41
2023-04-18T07:40:31.703Z,99126.77
2023-04-18T07:46:10.186Z,99133.18
2023-04-18T07:51:12.242Z,99139.56
2023-04-18T07:56:18.727Z,99135.31
2023-04-18T08:01:31.945Z,99134.77
2023-04-18T08:06:46.987Z,99134.09
2023-04-18T08:11:59.668Z,99140.76
2023-04-18T08:17:09.781Z,99142.67
2023-04-18T08:22:50.002Z,99144.80
2023-04-18T08:28:04.382Z,99150.67
2023-04-18T08:33:38.283Z,99157.52
2023-04-18T08:38:59.203Z,99158.28
2023-04-18T08:44:01.259Z,99159.55
2023-04-18T08:49:22.187Z,99163.27
2023-04-18T08:54:29.890Z,99164.74
2023-04-18T08:59:35.103Z,99166.52
2023-04-18T09:04:44.265Z,99173.48
2023-04-18T09:09:50.956Z,99173.05
2023-04-18T09:15:22.442Z,99167.33
2023-04-18T09:20:41.746Z,99168.79
2023-04-18T09:25:52.771Z,99160.73
2023-04-18T09:31:15.026Z,99158.65
2023-04-18T09:36:31.768Z,99155.96
2023-04-18T09:41:33.811Z,99158.46
2023-04-18T09:46:38.302Z,99163.52
2023-04-18T09:51:46.499Z,99164.59
2023-04-18T09:57:04.839Z,99162.63
2023-04-18T10:02:21.541Z,99165.73
2023-04-18T10:07:27.610Z,99159.41
2023-04-18T10:12:35.968Z,99159.40
2023-04-18T10:18:04.390Z,99156.13
2023-04-18T10:23:28.047Z,99151.51
2023-04-18T10:29:05.217Z,99148.79
2023-04-18T10:34:07.513Z,99140.57
2023-04-18T10:39:25.563Z,99134.30
2023-04-18T10:44:29.775Z,99140.89
2023-04-18T10:49:34.679Z,99134.55
2023-04-18T10:55:11.570Z,99133.48
2023-04-18T11:00:16.291Z,99127.77
2023-04-18T11:05:27.358Z,99129.73
2023-04-18T11:10:29.500Z,99122.51
2023-04-18T11:15:36.233Z,99122.86
2023-04-18T11:20:49.125Z,99117.89
2023-04-18T11:26:02.540Z,99121.02
2023-04-18T11:31:14.410Z,99120.81
2023-04-18T11:36:43.502Z,99116.92
2023-04-18T11:42:29.647Z,99116.27
2023-04-18T11:48:25.217Z,99119.27
2023-04-18T11:53:38.446Z,99117.58
2023-04-18T11:58:45.592Z,99118.81
2023-04-18T12:04:13.955Z,99120.73
2023-04-18T12:09:27.683Z,99115.63
2023-04-18T12:14:35.193Z,99117.76
2023-04-18T12:19:44.982Z,99114.83
2023-04-18T12:25:06.851Z,99113.63
2023-04-18T12:30:09.852Z,99103.84
2023-04-18T12:35:21.476Z,99102.75
2023-04-18T12:40:45.630Z,99101.36
2023-04-18T12:46:07.721Z,99100.09
2023-04-18T12:51:09.868Z,99095.98
2023-04-18T12:56:21.304Z,99094.46
2023-04-18T13:01:31.689Z,99092.38
2023-04-18T13:06:33.876Z,99086.17
2023-04-18T13:11:38.953Z,99078.48
2023-04-18T13:16:45.699Z,99077.53
2023-04-18T13:21:49.482Z,99075.38
2023-04-18T13:26:59.258Z,99074.98
2023-04-18T13:32:01.081Z,99077.57
2023-04-18T13:37:05.934Z,99079.05
2023-04-18T13:42:09.884Z,99083.08
2023-04-18T13:47:11.691Z,99078.98
2023-04-18T13:52:18.171Z,99084.89
2023-04-18T13:57:22.785Z,99082.61
2023-04-18T14:02:27.246Z,99083.84
2023-04-18T14:07:29.076Z,99079.66
2023-04-18T14:12:30.832Z,99078.79
2023-04-18T14:17:37.991Z,99078.54
2023-04-18T14:22:53.233Z,99077.33
2023-04-18T14:28:09.986Z,99081.34
2023-04-18T14:33:15.196Z,99079.50
2023-04-18T14:38:17.194Z,99082.08
2023-04-18T14:43:35.871Z,99085.52
2023-04-18T14:48:37.705Z,99087.09
2023-04-18T14:53:40.380Z,99087.04
2023-04-18T14:58:49.996Z,99079.13
2023-04-18T15:03:51.867Z,99083.34
2023-04-18T15:09:16.780Z,99082.88
2023-04-18T15:14:58.213Z,99080.27
2023-04-18T15:21:01.904Z,99080.73
2023-04-18T15:27:23.215Z,99085.16
2023-04-18T15:32:51.657Z,99084.44
2023-04-18T15:38:02.337Z,99084.25
2023-04-18T15:44:04.300Z,99093.71
2023-04-18T15:50:33.675Z,99097.32
2023-04-18T15:56:00.947Z,99097.44
2023-04-18T16:01:04.993Z,99096.37
2023-04-18T16:06:09.219Z,99101.86
2023-04-18T16:11:16.473Z,99105.23
2023-04-18T16:17:20.795Z,99103.33
2023-04-18T16:23:44.755Z,99102.34
2023-04-18T16:29:15.386Z,99105.31
2023-04-18T16:34:17.240Z,99109.77
2023-04-18T16:39:27.590Z,99104.70
2023-04-18T16:44:41.376Z,99102.52
2023-04-18T16:49:50.825Z,99107.03
2023-04-18T16:55:04.552Z,99107.19
2023-04-18T17:00:14.797Z,99111.88
2023-04-18T17:05:33.385Z,99113.67
2023-04-18T17:11:07.932Z,99111.55
2023-04-18T17:16:26.973Z,99117.42
2023-04-18T17:21:34.574Z,99125.50
2023-04-18T17:26:38.324Z,99124.97
2023-04-18T17:31:42.418Z,99131.77
2023-04-18T17:36:44.366Z,99133.46
2023-04-18T17:41:54.312Z,99136.61
2023-04-18T17:46:56.143Z,99136.20
2023-04-18T17:51:58.422Z,99134.17
2023-04-18T17:57:03.398Z,99144.90
2023-04-18T18:02:25.009Z,99145.89
2023-04-18T18:07:33.314Z,99147.09
2023-04-18T18:12:40.502Z,99144.63
2023-04-18T18:17:42.818Z,99154.48
2023-04-18T18:22:44.469Z,99154.93
2023-04-18T18:27:53.978Z,99162.35
2023-04-18T18:33:22.787Z,99159.84
2023-04-18T18:38:24.637Z,99162.35
2023-04-18T18:43:26.569Z,99165.61
2023-04-18T18:48:30.985Z,99165.45
2023-04-18T18:54:34.526Z,99163.89
2023-04-18T18:59:56.309Z,99161.74
2023-04-18T19:05:01.286Z,99165.90
2023-04-18T19:10:04.753Z,99166.42
2023-04-18T19:15:10.195Z,99159.05
2023-04-18T19:20:12.011Z,99162.17
2023-04-18T19:25:14.146Z,99158.42
2023-04-18T19:31:15.646Z,99161.94
2023-04-18T19:36:37.511Z,99158.87
2023-04-18T19:41:41.100Z,99158.91
2023-04-18T19:47:42.513Z,99156.55
2023-04-18T19:53:07.422Z,99150.11
2023-04-18T19:58:43.291Z,99150.87
2023-04-18T20:03:50.394Z,99143.64
2023-04-18T20:09:54.267Z,99144.36
2023-04-18T20:16:15.474Z,99146.09
2023-04-18T20:22:36.823Z,99135.52
2023-04-18T20:28:15.794Z,99138.23
2023-04-18T20:33:39.291Z,99137.85
2023-04-18T20:39:40.598Z,99134.43
2023-04-18T20:46:02.638Z,99133.91
2023-04-18T20:52:23.872Z,99129.00
2023-04-18T20:57:48.161Z,99116.45
2023-04-18T21:03:49.894Z,99115.79
2023-04-18T21:09:20.040Z,99115.50
2023-04-18T21:14:40.117Z,99104.73
2023-04-18T21:20:47.657Z,99103.44
2023-04-18T21:27:11.379Z,99098.83
2023-04-18T21:33:02.369Z,99093.84
2023-04-18T21:38:17.198Z,99088.44
2023-04-18T21:43:21.720Z,99088.66
2023-04-18T21:49:26.155Z,99078.51
2023-04-18T21:54:59.230Z,99075.61
2023-04-18T22:00:27.718Z,99072.61
2023-04-18T22:07:30.752Z,99064.58
2023-04-18T22:14:29.867Z,99055.33
2023-04-18T22:21:14.871Z,99048.79
2023-04-18T22:27:06.910Z,99041.86
2023-04-18T22:32:26.301Z,99036.17
2023-04-18T22:37:47.183Z,99029.91
2023-04-18T22:43:06.477Z,99026.61
2023-04-18T22:48:13.310Z,99028.75
2023-04-18T22:53:31.928Z,99021.15
2023-04-18T22:59:04.941Z,99012.98
2023-04-18T23:05:26.617Z,99001.85
2023-04-18T23:11:00.182Z,98996.11
2023-04-18T23:16:32.349Z,98985.58
2023-04-18T23:22:25.911Z,98975.73
2023-04-18T23:28:41.606Z,98966.85
2023-04-18T23:35:03.388Z,98960.23
2023-04-18T23:41:31.036Z,98947.49
2023-04-18T23:47:53.487Z,98939.40
2023-04-18T23:53:24.259Z,98931.33
2023-04-18T23:59:29.111Z,98927.94
